Time;durP1;ratioP1;P1;durP2;ratioP2;P2;SDS_P1;SDS_P2;PMS_P1;PMS_P2;Temp;Humidity;BMP_temperature;BMP_pressure;BME280_temperature;BME280_humidity;BME280_pressure;Samples;Min_cycle;Max_cycle;Signal;HPM_P1;HPM_P2
2023/11/30 00:00:40;;;;;;;14.05;6.03;;;;;;;3.79;62.74;100250.50;4952884;28;114732;-78
2023/11/30 00:03:07;;;;;;;12.63;5.90;;;;;;;3.77;62.71;100232.19;4948411;28;123546;-78
2023/11/30 00:05:34;;;;;;;12.50;6.10;;;;;;;3.79;62.76;100229.53;4957260;28;124638;-78
2023/11/30 00:08:02;;;;;;;16.85;5.93;;;;;;;3.79;62.83;100237.41;4973045;28;117226;-79
2023/11/30 00:10:29;;;;;;;13.05;5.57;;;;;;;3.78;62.63;100233.91;4946673;28;114249;-79
2023/11/30 00:12:56;;;;;;;12.60;5.95;;;;;;;3.79;62.93;100234.78;4966131;28;124478;-78
2023/11/30 00:15:23;;;;;;;16.15;6.70;;;;;;;3.78;62.73;100230.41;4957018;28;124784;-78
2023/11/30 00:17:51;;;;;;;15.07;6.20;;;;;;;3.78;62.83;100222.56;4954153;28;116059;-78
2023/11/30 00:20:18;;;;;;;13.27;5.95;;;;;;;3.78;62.75;100222.56;4949417;28;114662;-78
2023/11/30 00:22:46;;;;;;;12.68;6.38;;;;;;;3.79;62.75;100224.28;4951193;28;124586;-78
2023/11/30 00:25:14;;;;;;;11.98;5.75;;;;;;;3.77;62.66;100216.47;4955115;28;122947;-78
2023/11/30 00:27:41;;;;;;;11.68;6.30;;;;;;;3.76;62.83;100216.50;4957302;28;116853;-78
2023/11/30 00:30:09;;;;;;;19.27;6.50;;;;;;;3.77;62.63;100218.22;4957092;28;114377;-78
2023/11/30 00:32:37;;;;;;;15.35;6.80;;;;;;;3.76;62.97;100214.75;4957190;28;124546;-78
2023/11/30 00:35:04;;;;;;;16.25;6.68;;;;;;;3.75;62.92;100212.16;4953262;28;124763;-78
2023/11/30 00:37:32;;;;;;;12.43;5.53;;;;;;;3.75;62.77;100207.81;4944375;28;114384;-78
2023/11/30 00:39:59;;;;;;;13.98;6.90;;;;;;;3.76;62.69;100211.28;4956256;28;114687;-78
2023/11/30 00:42:26;;;;;;;16.40;6.30;;;;;;;3.76;62.70;100203.41;4954942;28;124240;-78
2023/11/30 00:44:54;;;;;;;13.15;5.90;;;;;;;3.76;62.92;100213.91;4958270;28;124562;-78
2023/11/30 00:47:21;;;;;;;13.43;6.30;;;;;;;3.76;62.74;100213.91;4955123;28;114316;-78
2023/11/30 00:49:49;;;;;;;19.05;6.20;;;;;;;3.75;62.69;100207.81;4957697;28;114505;-78
2023/11/30 00:52:16;;;;;;;15.30;7.05;;;;;;;3.75;62.68;100212.16;4956660;28;125255;-79
2023/11/30 00:54:43;;;;;;;15.90;6.38;;;;;;;3.73;62.87;100198.25;4944481;28;124275;-78
2023/11/30 00:57:11;;;;;;;13.25;6.35;;;;;;;3.73;62.62;100209.59;4954222;28;115189;-79
2023/11/30 00:59:38;;;;;;;14.88;6.75;;;;;;;3.70;62.60;100205.28;4953188;28;113384;-78
2023/11/30 01:02:05;;;;;;;10.85;5.88;;;;;;;3.69;62.73;100206.22;4956995;28;124656;-78
2023/11/30 01:04:33;;;;;;;15.15;6.82;;;;;;;3.69;62.96;100202.72;4949479;28;124555;-79
2023/11/30 01:07:00;;;;;;;13.20;6.00;;;;;;;3.69;62.78;100200.97;4957577;28;113924;-79
2023/11/30 01:09:27;;;;;;;16.65;6.43;;;;;;;3.68;62.74;100196.63;4957243;28;113509;-78
2023/11/30 01:11:55;;;;;;;14.20;6.40;;;;;;;3.66;62.80;100198.44;4956280;28;125002;-78
2023/11/30 01:14:23;;;;;;;13.45;6.53;;;;;;;3.63;62.39;100192.41;4969769;28;125578;-79
2023/11/30 01:16:50;;;;;;;13.20;5.65;;;;;;;3.61;62.74;100195.06;4956881;28;115877;-78
2023/11/30 01:19:18;;;;;;;10.98;5.50;;;;;;;3.59;62.56;100191.63;4957280;28;115247;-78
2023/11/30 01:21:45;;;;;;;12.88;5.80;;;;;;;3.54;62.10;100188.28;4955533;28;125044;-79
2023/11/30 01:24:13;;;;;;;17.00;6.10;;;;;;;3.51;62.69;100196.22;4949464;28;124225;-78
2023/11/30 01:26:40;;;;;;;11.73;5.95;;;;;;;3.48;62.90;100199.78;4955125;28;115075;-79
2023/11/30 01:29:08;;;;;;;12.15;5.63;;;;;;;3.44;62.61;100195.50;4971849;28;113348;-78
2023/11/30 01:31:35;;;;;;;12.68;5.60;;;;;;;3.41;62.65;100197.34;4952505;28;124931;-79
2023/11/30 01:34:03;;;;;;;14.98;5.63;;;;;;;3.42;62.67;100193.84;4973391;28;124048;-79
2023/11/30 01:36:30;;;;;;;13.45;6.00;;;;;;;3.43;62.64;100200.81;4956027;28;113601;-79
2023/11/30 01:38:58;;;;;;;11.48;5.70;;;;;;;3.42;62.63;100199.06;4952731;28;113117;-79
2023/11/30 01:41:26;;;;;;;14.20;5.70;;;;;;;3.40;62.59;100195.66;4945259;28;123302;-79
2023/11/30 01:43:53;;;;;;;12.48;5.80;;;;;;;3.37;62.69;100190.47;4956146;28;125146;-81
2023/11/30 01:46:21;;;;;;;11.32;4.30;;;;;;;3.30;62.51;100190.66;4951926;28;115166;-79
2023/11/30 01:48:48;;;;;;;14.18;5.50;;;;;;;3.27;62.70;100189.84;4954175;28;115147;-80
2023/11/30 01:51:16;;;;;;;11.25;5.13;;;;;;;3.26;62.81;100188.16;4947838;28;123519;-80
2023/11/30 01:53:44;;;;;;;10.27;5.20;;;;;;;3.25;62.83;100192.50;4945910;28;124356;-79
2023/11/30 01:56:14;;;;;;;12.73;5.57;;;;;;;3.25;62.96;100184.66;4955331;28;114874;-78
2023/11/30 01:58:41;;;;;;;12.02;5.03;;;;;;;3.25;62.70;100182.03;4972321;28;113301;-79
2023/11/30 02:01:09;;;;;;;10.43;5.30;;;;;;;3.24;62.81;100177.72;4952650;28;124677;-79
2023/11/30 02:03:37;;;;;;;12.68;5.47;;;;;;;3.23;62.90;100170.75;4948702;28;123013;-79
2023/11/30 02:06:05;;;;;;;11.70;5.22;;;;;;;3.22;62.53;100173.41;4956162;28;114641;-78
2023/11/30 02:08:33;;;;;;;12.68;5.50;;;;;;;3.20;62.85;100173.47;4956697;28;114685;-79
2023/11/30 02:11:01;;;;;;;11.68;4.95;;;;;;;3.18;62.95;100170.00;4956659;28;125149;-79
2023/11/30 02:13:29;;;;;;;12.15;5.60;;;;;;;3.16;62.64;100166.56;4970555;28;123442;-79
2023/11/30 02:15:57;;;;;;;11.80;5.47;;;;;;;3.15;62.76;100164.88;4957410;28;113182;-79
2023/11/30 02:18:24;;;;;;;17.00;5.80;;;;;;;3.14;62.80;100163.16;4956392;28;113208;-79
2023/11/30 02:20:55;;;;;;;15.48;6.15;;;;;;;3.13;62.66;100156.22;4940823;28;124579;-80
2023/11/30 02:23:23;;;;;;;13.27;5.78;;;;;;;3.13;62.68;100166.69;4950664;28;126887;-80
2023/11/30 02:25:51;;;;;;;11.45;6.15;;;;;;;3.14;62.67;100157.06;4955117;28;113773;-80
2023/11/30 02:28:21;;;;;;;15.40;5.32;;;;;;;3.14;63.03;100155.28;4987388;22;113219;-74
2023/11/30 02:30:49;;;;;;;12.43;5.53;;;;;;;3.16;62.85;100156.09;4986314;28;123404;-74
2023/11/30 02:33:18;;;;;;;13.85;5.38;;;;;;;3.16;63.01;100150.88;4971308;28;122159;-74
2023/11/30 02:35:45;;;;;;;18.45;6.40;;;;;;;3.18;62.99;100159.53;4972028;28;113805;-74
2023/11/30 02:38:13;;;;;;;12.15;5.22;;;;;;;3.18;62.93;100154.31;4960200;28;113450;-74
2023/11/30 02:40:40;;;;;;;14.18;5.68;;;;;;;3.18;62.71;100159.53;4964260;28;123245;-74
2023/11/30 02:43:07;;;;;;;15.02;5.60;;;;;;;3.15;62.61;100149.19;4961317;28;125247;-74
2023/11/30 02:45:34;;;;;;;11.68;5.40;;;;;;;3.15;62.84;100149.19;4946874;28;114566;-74
2023/11/30 02:48:10;;;;;;;11.73;5.30;;;;;;;3.14;62.86;100147.44;4961858;28;113955;-74
2023/11/30 02:50:38;;;;;;;11.23;5.43;;;;;;;3.14;63.02;100142.22;4951701;28;124699;-74
2023/11/30 02:53:05;;;;;;;13.35;5.65;;;;;;;3.17;62.79;100142.16;4962177;28;124030;-74
2023/11/30 02:55:34;;;;;;;13.43;5.93;;;;;;;3.16;62.85;100139.56;4940259;28;114720;-73
2023/11/30 02:58:01;;;;;;;13.93;5.88;;;;;;;3.18;62.91;100138.63;4952446;28;114987;-73
2023/11/30 03:00:28;;;;;;;19.30;5.82;;;;;;;3.17;62.79;100139.53;4964007;28;124048;-73
2023/11/30 03:02:56;;;;;;;32.90;7.05;;;;;;;3.17;63.33;100142.16;4960859;28;123546;-74
2023/11/30 03:05:26;;;;;;;73.95;7.53;;;;;;;3.15;62.95;100143.94;4954986;28;114466;-74
2023/11/30 03:07:54;;;;;;;83.47;7.80;;;;;;;3.14;62.76;100147.44;4955293;28;114158;-74
2023/11/30 03:10:21;;;;;;;43.35;6.90;;;;;;;3.12;62.93;100144.84;4961248;28;123245;-73
2023/11/30 03:12:51;;;;;;;74.30;7.43;;;;;;;3.10;62.87;100140.56;4956708;28;123271;-73
2023/11/30 03:15:20;;;;;;;64.10;6.88;;;;;;;3.07;62.86;100145.88;4949095;28;113938;-73
2023/11/30 03:17:50;;;;;;;92.45;7.57;;;;;;;3.05;62.85;100139.81;4951649;28;113501;-73
2023/11/30 03:20:17;;;;;;;90.20;7.40;;;;;;;3.03;63.04;100145.13;4953982;28;123863;-73
2023/11/30 03:22:50;;;;;;;82.70;7.55;;;;;;;3.02;62.81;100142.53;4956745;28;123353;-73
2023/11/30 03:25:17;;;;;;;80.45;7.00;;;;;;;3.02;62.95;100143.41;4946936;28;114671;-73
2023/11/30 03:27:44;;;;;;;51.60;6.18;;;;;;;3.01;62.92;100140.81;4956273;28;115726;-73
2023/11/30 03:30:12;;;;;;;38.72;5.82;;;;;;;3.00;63.29;100139.97;4965816;28;124993;-73
2023/11/30 03:32:39;;;;;;;41.35;5.72;;;;;;;3.03;63.03;100139.00;4967206;28;124648;-73
2023/11/30 03:35:07;;;;;;;53.45;6.40;;;;;;;3.06;63.29;100138.94;4950655;28;115079;-73
2023/11/30 03:37:40;;;;;;;30.42;5.60;;;;;;;3.10;63.35;100145.81;4955069;28;113345;-73
2023/11/30 03:40:07;;;;;;;34.20;5.93;;;;;;;3.14;63.33;100136.97;4966669;28;123332;-73
2023/11/30 03:42:36;;;;;;;90.03;7.20;;;;;;;3.17;62.99;100147.38;4954338;28;125506;-73
2023/11/30 03:45:03;;;;;;;34.42;6.55;;;;;;;3.20;63.38;100142.06;4954898;28;115688;-73
2023/11/30 03:47:34;;;;;;;74.28;7.28;;;;;;;3.21;63.01;100143.78;4944855;28;114599;-73
2023/11/30 03:50:01;;;;;;;18.27;5.63;;;;;;;3.21;63.22;100138.53;4979062;28;123248;-73
2023/11/30 03:52:29;;;;;;;29.20;6.18;;;;;;;3.22;63.26;100140.28;4958846;28;123237;-73
2023/11/30 03:54:57;;;;;;;24.98;5.95;;;;;;;3.25;63.23;100134.94;4952158;28;114136;-73
2023/11/30 03:57:25;;;;;;;67.72;7.25;;;;;;;3.26;63.00;100126.22;4956800;28;113115;-73
2023/11/30 03:59:52;;;;;;;30.52;6.30;;;;;;;3.28;63.14;100129.63;4954173;28;123112;-73
2023/11/30 04:02:20;;;;;;;16.13;6.13;;;;;;;3.28;62.96;100129.63;4954584;28;123709;-72
2023/11/30 04:04:47;;;;;;;36.35;6.47;;;;;;;3.28;63.27;100121.78;4951122;28;114623;-72
2023/11/30 04:07:15;;;;;;;113.43;7.68;;;;;;;3.30;63.22;100117.38;4945942;28;114089;-72
2023/11/30 04:09:42;;;;;;;75.35;7.18;;;;;;;3.31;62.93;100119.09;4954336;28;123953;-72
2023/11/30 04:12:10;;;;;;;22.60;6.13;;;;;;;3.30;62.82;100122.59;4952568;28;123229;-72
2023/11/30 04:14:39;;;;;;;47.53;6.47;;;;;;;3.28;63.12;100124.41;4947232;28;113619;-72
2023/11/30 04:17:06;;;;;;;50.15;6.93;;;;;;;3.27;62.94;100127.91;4954450;28;114283;-73
2023/11/30 04:19:35;;;;;;;16.65;5.70;;;;;;;3.24;63.08;100122.78;4951582;28;124042;-73
2023/11/30 04:22:02;;;;;;;14.00;6.15;;;;;;;3.25;62.87;100127.09;4953054;28;123555;-73
2023/11/30 04:24:35;;;;;;;14.57;6.30;;;;;;;3.26;63.00;100120.97;4952118;28;114358;-73
2023/11/30 04:27:03;;;;;;;46.72;6.65;;;;;;;3.27;62.96;100122.66;4954307;28;113774;-73
2023/11/30 04:29:31;;;;;;;35.88;6.05;;;;;;;3.28;63.17;100124.41;4950755;28;124193;-73
2023/11/30 04:32:01;;;;;;;49.78;6.45;;;;;;;3.28;63.16;100118.31;4954739;28;123622;-73
2023/11/30 04:34:28;;;;;;;39.03;5.80;;;;;;;3.28;62.96;100124.41;4948096;28;114948;-73
2023/11/30 04:36:57;;;;;;;31.05;6.35;;;;;;;3.26;62.96;100114.88;4958106;28;114001;-73
2023/11/30 04:39:24;;;;;;;24.38;5.45;;;;;;;3.25;63.19;100118.38;4951897;28;124483;-73
2023/11/30 04:41:53;;;;;;;66.45;7.55;;;;;;;3.24;63.07;100121.91;4947541;28;122952;-73
2023/11/30 04:44:20;;;;;;;67.30;6.68;;;;;;;3.22;63.01;100119.34;4945493;28;113272;-73
2023/11/30 04:46:50;;;;;;;25.95;6.45;;;;;;;3.21;63.21;100119.38;4958687;28;113556;-73
2023/11/30 04:49:17;;;;;;;68.55;7.20;;;;;;;3.20;63.49;100126.38;4956090;28;124116;-73
2023/11/30 04:51:46;;;;;;;46.92;6.13;;;;;;;3.20;63.20;100126.38;4952941;28;124782;-73
2023/11/30 04:54:13;;;;;;;44.03;6.88;;;;;;;3.20;63.28;100121.16;4952406;28;114607;-73
2023/11/30 04:56:40;;;;;;;82.88;7.22;;;;;;;3.19;62.98;100116.78;4944969;28;113313;-72
2023/11/30 04:59:07;;;;;;;50.28;6.88;;;;;;;3.16;62.92;100114.25;4942078;28;123752;-72
2023/11/30 05:01:37;;;;;;;26.15;6.40;;;;;;;3.13;63.18;100109.13;4961939;28;123716;-72
2023/11/30 05:04:04;;;;;;;90.63;8.02;;;;;;;3.11;63.00;100110.91;4953764;28;115100;-73
2023/11/30 05:06:33;;;;;;;19.35;6.50;;;;;;;3.09;63.13;100112.72;4964721;28;114088;-73
2023/11/30 05:09:02;;;;;;;31.15;6.55;;;;;;;3.08;62.98;100110.97;4957974;28;124096;-73
2023/11/30 05:11:30;;;;;;;21.67;6.65;;;;;;;3.08;63.04;100104.00;4961539;28;123951;-73
2023/11/30 05:13:57;;;;;;;52.53;7.63;;;;;;;3.12;63.36;100107.38;4961138;28;114057;-73
2023/11/30 05:16:24;;;;;;;58.08;6.90;;;;;;;3.14;63.25;100104.72;4952765;28;112947;-73
2023/11/30 05:18:51;;;;;;;38.70;6.57;;;;;;;3.13;63.20;100103.88;4945870;28;124969;-73
2023/11/30 05:21:19;;;;;;;68.60;7.38;;;;;;;3.14;63.17;100094.28;4953048;28;124141;-73
2023/11/30 05:23:46;;;;;;;50.42;7.13;;;;;;;3.14;63.27;100105.59;4949190;28;115862;-73
2023/11/30 05:26:13;;;;;;;34.72;6.43;;;;;;;3.13;63.24;100098.66;4957525;28;114650;-73
2023/11/30 05:28:43;;;;;;;57.47;6.68;;;;;;;3.13;63.33;100103.88;4953252;28;123708;-73
2023/11/30 05:31:11;;;;;;;30.58;6.53;;;;;;;3.12;63.12;100096.91;4955186;28;124028;-73
2023/11/30 05:33:39;;;;;;;41.05;6.88;;;;;;;3.13;63.18;100098.66;4956658;28;114186;-72
2023/11/30 05:36:06;;;;;;;16.67;6.75;;;;;;;3.12;63.26;100096.91;4947908;28;114225;-73
2023/11/30 05:38:34;;;;;;;24.70;6.93;;;;;;;3.11;63.20;100095.22;4953220;28;124105;-73
2023/11/30 05:41:01;;;;;;;40.65;6.95;;;;;;;3.13;63.12;100093.41;4964402;28;123872;-72
2023/11/30 05:43:28;;;;;;;14.45;5.97;;;;;;;3.12;63.15;100094.31;4957875;28;114169;-72
2023/11/30 05:45:55;;;;;;;41.80;6.72;;;;;;;3.12;63.11;100096.91;4951383;28;114197;-72
2023/11/30 05:48:25;;;;;;;16.63;6.18;;;;;;;3.14;63.37;100092.50;4955886;28;123977;-72
2023/11/30 05:50:52;;;;;;;24.13;6.20;;;;;;;3.20;63.51;100094.09;4953009;28;123030;-72
2023/11/30 05:53:19;;;;;;;18.85;7.03;;;;;;;3.21;63.38;100091.44;4956886;28;113332;-73
2023/11/30 05:55:46;;;;;;;16.17;7.05;;;;;;;3.24;63.36;100093.09;4958212;28;115471;-72
2023/11/30 05:58:13;;;;;;;23.88;6.88;;;;;;;3.25;63.24;100087.00;4951508;28;123746;-73
2023/11/30 06:00:42;;;;;;;15.32;6.43;;;;;;;3.28;63.33;100092.16;4957090;28;122911;-73
2023/11/30 06:03:10;;;;;;;19.30;7.15;;;;;;;3.28;63.20;100087.75;4954564;28;114536;-73
2023/11/30 06:05:37;;;;;;;20.42;6.72;;;;;;;3.29;63.16;100084.22;4948400;28;113662;-73
2023/11/30 06:08:04;;;;;;;14.13;6.80;;;;;;;3.31;63.13;100092.03;4951353;28;124056;-73
2023/11/30 06:10:34;;;;;;;20.00;6.70;;;;;;;3.33;63.33;100100.72;4972735;28;124002;-73
2023/11/30 06:13:01;;;;;;;24.15;7.15;;;;;;;3.37;63.19;100106.72;4959415;28;115113;-73
2023/11/30 06:15:32;;;;;;;19.27;7.20;;;;;;;3.37;63.32;100111.97;4960834;28;114889;-73
2023/11/30 06:18:00;;;;;;;24.85;7.40;;;;;;;3.38;63.46;100116.31;4957665;28;124152;-73
2023/11/30 06:20:27;;;;;;;15.15;6.47;;;;;;;3.40;63.32;100119.75;4954862;28;123360;-73
2023/11/30 06:22:54;;;;;;;14.55;6.90;;;;;;;3.41;63.18;100114.47;4953896;28;114929;-73
2023/11/30 06:25:21;;;;;;;20.00;6.75;;;;;;;3.43;63.06;100111.81;4950053;28;114024;-73
2023/11/30 06:27:49;;;;;;;18.98;7.55;;;;;;;3.44;63.32;100114.38;4961301;28;123885;-73
2023/11/30 06:30:16;;;;;;;19.65;7.68;;;;;;;3.45;63.28;100120.47;4954799;28;124310;-73
2023/11/30 06:32:43;;;;;;;20.02;7.57;;;;;;;3.45;63.12;100107.41;4974434;28;114602;-73
2023/11/30 06:35:11;;;;;;;16.92;7.32;;;;;;;3.47;63.10;100121.28;4963716;28;112941;-73
2023/11/30 06:37:38;;;;;;;24.23;8.10;;;;;;;3.47;62.97;100126.53;4953211;28;123555;-73
2023/11/30 06:40:06;;;;;;;26.33;7.72;;;;;;;3.44;63.21;100122.22;4958387;28;123995;-73
2023/11/30 06:42:33;;;;;;;28.33;7.47;;;;;;;3.43;63.08;100132.75;4955662;28;114901;-72
2023/11/30 06:45:00;;;;;;;25.85;7.50;;;;;;;3.41;63.02;100134.53;4950867;28;113952;-72
2023/11/30 06:47:28;;;;;;;45.55;8.20;;;;;;;3.38;62.94;100134.63;4971348;28;123860;-72
2023/11/30 06:49:56;;;;;;;54.40;7.88;;;;;;;3.32;63.01;100135.66;4952415;28;123145;-72
2023/11/30 06:52:25;;;;;;;30.48;7.32;;;;;;;3.28;63.07;100134.88;4963434;28;114902;-72
2023/11/30 06:54:53;;;;;;;42.22;7.97;;;;;;;3.27;63.17;100133.13;4950050;28;114248;-72
2023/11/30 06:57:21;;;;;;;25.77;7.82;;;;;;;3.27;63.32;100129.69;4947391;28;123377;-72
2023/11/30 06:59:48;;;;;;;20.60;7.60;;;;;;;3.26;63.18;100126.22;4966442;28;123462;-72
2023/11/30 07:02:16;;;;;;;18.17;7.40;;;;;;;3.25;63.36;100129.72;4967463;28;114407;-72
2023/11/30 07:04:43;;;;;;;15.57;6.68;;;;;;;3.26;63.29;100126.22;4967597;28;115490;-72
2023/11/30 07:07:10;;;;;;;16.85;7.63;;;;;;;3.29;63.22;100128.72;4960604;28;123692;-72
2023/11/30 07:09:54;;;;;;;15.88;7.57;;;;;;;3.30;63.25;100122.59;4958267;28;124025;-72
2023/11/30 07:12:21;;;;;;;15.55;7.20;;;;;;;3.31;63.34;100134.81;4968327;28;114450;-72
2023/11/30 07:14:49;;;;;;;18.85;8.00;;;;;;;3.30;63.26;100122.59;4972817;28;114064;-72
2023/11/30 07:17:23;;;;;;;15.20;6.53;;;;;;;3.35;63.45;100119.00;4962859;28;124010;-73
2023/11/30 07:19:51;;;;;;;17.02;8.20;;;;;;;3.36;63.27;100125.97;4957821;28;124357;-74
2023/11/30 07:22:20;;;;;;;16.58;6.75;;;;;;;3.39;63.07;100131.09;4961731;28;114604;-74
2023/11/30 07:24:48;;;;;;;16.42;6.68;;;;;;;3.42;63.57;100133.63;4961787;28;114590;-73
2023/11/30 07:27:20;;;;;;;14.35;6.75;;;;;;;3.46;63.69;100132.66;4958083;28;123503;-73
2023/11/30 07:29:47;;;;;;;18.77;7.68;;;;;;;3.51;63.64;100136.00;4953871;28;125075;-73
2023/11/30 07:32:53;;;;;;;16.08;7.43;;;;;;;3.55;63.28;100137.63;4954062;28;114961;-74
2023/11/30 07:35:26;;;;;;;15.35;6.88;;;;;;;3.57;63.05;100135.84;4956610;28;113413;-75
2023/11/30 07:37:54;;;;;;;16.60;7.28;;;;;;;3.58;63.36;100132.34;4954908;28;123774;-73
2023/11/30 07:40:21;;;;;;;18.00;7.05;;;;;;;3.59;63.35;100139.25;4950365;28;124627;-72
2023/11/30 07:42:48;;;;;;;18.40;7.47;;;;;;;3.62;63.27;100139.19;4954461;28;114406;-72
2023/11/30 07:45:15;;;;;;;16.45;7.60;;;;;;;3.66;63.50;100135.59;4954116;28;113443;-72
2023/11/30 07:47:44;;;;;;;16.75;8.02;;;;;;;3.68;63.53;100139.00;4959892;28;124122;-72
2023/11/30 07:50:15;;;;;;;19.75;8.57;;;;;;;3.70;63.28;100134.59;4953808;28;123795;-72
2023/11/30 07:52:43;;;;;;;16.45;7.30;;;;;;;3.70;63.16;100137.22;4951430;28;114525;-72
2023/11/30 07:55:11;;;;;;;19.30;7.75;;;;;;;3.71;63.40;100132.81;4950782;28;115018;-71
2023/11/30 07:57:39;;;;;;;17.00;7.60;;;;;;;3.72;63.53;100133.69;4957604;28;124651;-71
2023/11/30 08:00:11;;;;;;;20.00;7.68;;;;;;;3.72;63.52;100138.94;4954291;28;123400;-71
2023/11/30 08:02:38;;;;;;;20.38;8.98;;;;;;;3.72;63.30;100144.19;4956749;28;114351;-71
2023/11/30 08:05:06;;;;;;;23.27;8.90;;;;;;;3.72;63.51;100134.53;4953561;28;114037;-71
2023/11/30 08:07:33;;;;;;;19.08;7.90;;;;;;;3.70;63.37;100142.44;4950955;28;124760;-71
2023/11/30 08:10:01;;;;;;;25.35;8.18;;;;;;;3.70;63.39;100137.22;4959877;28;124264;-71
2023/11/30 08:12:28;;;;;;;20.33;7.82;;;;;;;3.70;63.42;100137.22;4961254;28;114971;-71
2023/11/30 08:14:56;;;;;;;20.17;8.07;;;;;;;3.72;63.25;100149.41;4958546;28;114077;-71
2023/11/30 08:17:24;;;;;;;16.27;7.47;;;;;;;3.73;63.23;100151.13;4957192;28;124065;-71
2023/11/30 08:19:51;;;;;;;21.15;8.82;;;;;;;3.75;63.29;100146.69;4950728;28;123914;-71
2023/11/30 08:22:18;;;;;;;16.38;7.82;;;;;;;3.76;63.76;100140.56;4953431;28;114310;-71
2023/11/30 08:24:46;;;;;;;20.65;8.15;;;;;;;3.78;63.38;100144.00;4953095;28;113219;-71
2023/11/30 08:27:13;;;;;;;18.73;7.93;;;;;;;3.79;63.44;100135.25;4952639;28;125119;-71
2023/11/30 08:29:41;;;;;;;19.08;8.07;;;;;;;3.78;63.59;100138.75;4952977;28;123509;-71
2023/11/30 08:32:08;;;;;;;17.67;7.68;;;;;;;3.79;63.57;100135.25;4949781;28;113749;-71
2023/11/30 08:34:35;;;;;;;22.40;8.95;;;;;;;3.82;63.53;100140.38;4951745;28;114340;-71
2023/11/30 08:37:04;;;;;;;19.80;7.95;;;;;;;3.86;63.50;100131.53;4961008;28;124369;-71
2023/11/30 08:39:31;;;;;;;19.40;7.78;;;;;;;3.89;63.49;100127.06;4951477;28;122967;-72
2023/11/30 08:42:00;;;;;;;23.02;8.70;;;;;;;3.95;63.71;100136.50;4952131;28;115171;-71
2023/11/30 08:44:27;;;;;;;22.75;8.25;;;;;;;3.99;63.73;100132.88;4961027;28;115199;-72
2023/11/30 08:46:55;;;;;;;22.02;8.48;;;;;;;4.04;63.72;100141.47;4953264;28;123141;-72
2023/11/30 08:49:22;;;;;;;20.13;8.55;;;;;;;4.08;63.46;100131.75;4952709;28;123615;-72
2023/11/30 08:51:49;;;;;;;23.13;8.32;;;;;;;4.09;63.39;100123.84;4957546;28;114017;-72
2023/11/30 08:54:17;;;;;;;20.33;8.25;;;;;;;4.10;63.66;100117.69;4950388;28;114397;-72
2023/11/30 08:56:45;;;;;;;18.08;8.13;;;;;;;4.13;63.68;100129.03;4957222;28;123448;-72
2023/11/30 08:59:13;;;;;;;17.92;7.75;;;;;;;4.15;63.48;100121.97;4960814;28;124759;-73
2023/11/30 09:01:41;;;;;;;18.98;8.13;;;;;;;4.19;63.55;100128.81;4951644;28;114557;-72
2023/11/30 09:04:08;;;;;;;16.52;7.65;;;;;;;4.24;63.50;100133.03;4941026;28;113156;-72
2023/11/30 09:06:36;;;;;;;16.75;7.75;;;;;;;4.28;63.49;100133.78;4950260;28;124294;-72
2023/11/30 09:09:03;;;;;;;16.05;7.90;;;;;;;4.32;63.58;100135.41;4951949;28;123823;-72
2023/11/30 09:11:33;;;;;;;19.58;8.82;;;;;;;4.34;63.77;100123.09;4963051;28;114344;-72
2023/11/30 09:14:00;;;;;;;21.48;8.25;;;;;;;4.38;63.58;100124.72;4954408;28;113545;-72
2023/11/30 09:16:27;;;;;;;22.27;8.35;;;;;;;4.41;63.47;100135.13;4950607;28;124329;-72
2023/11/30 09:18:55;;;;;;;21.70;8.90;;;;;;;4.45;63.56;100130.66;4952376;28;124417;-73
2023/11/30 09:21:23;;;;;;;22.25;8.98;;;;;;;4.49;63.54;100132.25;4952359;28;114240;-72
2023/11/30 09:23:53;;;;;;;20.25;8.48;;;;;;;4.53;63.81;100133.88;4954099;28;114683;-73
2023/11/30 09:26:21;;;;;;;18.98;8.20;;;;;;;4.56;63.59;100133.78;4959913;28;124223;-73
2023/11/30 09:28:50;;;;;;;18.35;8.50;;;;;;;4.60;63.85;100134.56;4952518;28;123925;-73
2023/11/30 09:31:19;;;;;;;22.23;8.70;;;;;;;4.61;63.78;100131.00;4933884;28;115344;-72
2023/11/30 09:33:46;;;;;;;17.25;8.57;;;;;;;4.62;63.83;100138.84;4950997;28;115733;-72
2023/11/30 09:36:13;;;;;;;20.83;9.27;;;;;;;4.65;63.55;100137.88;4951684;28;124426;-72
2023/11/30 09:38:41;;;;;;;19.75;8.95;;;;;;;4.69;63.71;100144.75;4955416;28;124563;-73
2023/11/30 09:41:13;;;;;;;22.45;8.52;;;;;;;4.72;63.57;100128.91;4938517;28;114151;-73
2023/11/30 09:43:40;;;;;;;23.17;9.45;;;;;;;4.77;63.70;100136.63;4974238;28;113298;-74
2023/11/30 09:46:17;;;;;;;24.60;9.88;;;;;;;4.80;63.70;100132.16;4956133;28;122778;-73
2023/11/30 09:48:44;;;;;;;23.13;9.32;;;;;;;4.83;63.63;100129.41;4956224;28;123232;-73
2023/11/30 09:51:19;;;;;;;18.50;8.65;;;;;;;4.87;63.93;100128.38;4948138;28;114576;-73
2023/11/30 09:53:46;;;;;;;24.80;10.32;;;;;;;4.91;63.69;100125.69;4945126;28;114008;-73
2023/11/30 09:56:17;;;;;;;24.80;9.95;;;;;;;4.95;63.84;100129.91;4952033;28;124595;-73
2023/11/30 09:58:44;;;;;;;26.42;10.38;;;;;;;4.96;63.72;100126.38;4956383;28;123887;-73
2023/11/30 10:01:11;;;;;;;28.95;10.73;;;;;;;4.98;63.71;100120.16;4954310;28;114909;-73
2023/11/30 10:03:39;;;;;;;26.33;9.40;;;;;;;4.99;63.94;100121.91;4956347;28;113399;-74
2023/11/30 10:06:08;;;;;;;25.58;9.45;;;;;;;5.01;63.93;100129.69;4954520;28;124921;-73
2023/11/30 10:08:36;;;;;;;26.08;10.32;;;;;;;5.04;63.91;100129.59;4954692;28;124429;-73
2023/11/30 10:11:04;;;;;;;25.30;10.27;;;;;;;5.05;63.53;100131.34;4955702;28;114649;-73
2023/11/30 10:13:31;;;;;;;28.67;10.05;;;;;;;5.08;63.59;100133.84;4959807;28;114071;-73
2023/11/30 10:15:58;;;;;;;22.77;9.63;;;;;;;5.10;63.60;100124.13;4954450;28;126620;-74
2023/11/30 10:18:30;;;;;;;19.85;8.75;;;;;;;5.13;63.69;100128.44;4953113;28;123863;-73
2023/11/30 10:21:03;;;;;;;24.90;8.60;;;;;;;5.14;63.89;100131.03;4953979;28;115641;-73
2023/11/30 10:23:31;;;;;;;22.10;9.13;;;;;;;5.13;63.78;100124.03;4961410;28;115044;-73
2023/11/30 10:26:01;;;;;;;23.00;8.50;;;;;;;5.17;63.85;100120.41;4952421;28;123875;-73
2023/11/30 10:28:30;;;;;;;27.48;8.95;;;;;;;5.21;63.95;100121.16;4963227;28;123222;-74
2023/11/30 10:31:01;;;;;;;18.40;7.95;;;;;;;5.24;63.85;100121.91;4976204;28;114599;-74
2023/11/30 10:33:30;;;;;;;26.95;9.57;;;;;;;5.30;63.65;100125.25;4959445;28;113209;-74
2023/11/30 10:36:01;;;;;;;22.05;9.45;;;;;;;5.32;63.79;100128.66;4955870;28;123197;-74
2023/11/30 10:38:32;;;;;;;20.63;8.05;;;;;;;5.33;63.91;100126.00;4956581;28;123901;-73
2023/11/30 10:41:06;;;;;;;24.75;8.63;;;;;;;5.36;64.17;100130.25;4952873;28;114347;-73
2023/11/30 10:43:37;;;;;;;28.65;9.93;;;;;;;5.39;63.61;100135.41;4958999;28;114345;-73
2023/11/30 10:46:07;;;;;;;28.42;10.52;;;;;;;5.40;63.59;100131.88;4953634;28;124287;-73
2023/11/30 10:48:39;;;;;;;28.00;10.20;;;;;;;5.40;63.58;100126.63;4954187;28;123980;-73
2023/11/30 10:51:11;;;;;;;27.00;9.70;;;;;;;5.39;63.50;100124.91;4955220;28;113624;-73
2023/11/30 10:53:49;;;;;;;29.27;9.52;;;;;;;5.41;64.09;100123.09;4950214;28;115887;-73
2023/11/30 10:56:17;;;;;;;25.63;8.18;;;;;;;5.46;63.69;100115.88;4959077;28;124969;-73
2023/11/30 10:58:48;;;;;;;26.45;9.27;;;;;;;5.50;63.64;100117.53;4955059;28;124095;-74
2023/11/30 11:01:18;;;;;;;25.95;10.38;;;;;;;5.53;63.98;100117.38;4959775;28;113801;-74
2023/11/30 11:03:52;;;;;;;26.92;9.15;;;;;;;5.56;64.09;100117.28;4962704;28;113278;-73
2023/11/30 11:06:26;;;;;;;27.48;9.25;;;;;;;5.59;63.65;100117.16;4952519;28;123817;-74
2023/11/30 11:08:59;;;;;;;26.40;8.55;;;;;;;5.63;64.17;100118.78;4955223;28;123531;-73
2023/11/30 11:11:30;;;;;;;25.50;9.45;;;;;;;5.69;64.02;100122.06;4956631;28;114983;-73
2023/11/30 11:13:59;;;;;;;22.98;9.48;;;;;;;5.73;63.79;100115.81;4959248;28;115388;-73
2023/11/30 11:16:41;;;;;;;28.63;10.38;;;;;;;5.73;63.90;100107.94;4956918;28;123953;-72
2023/11/30 11:19:09;;;;;;;28.05;10.02;;;;;;;5.72;63.74;100109.69;4953392;28;124739;-73
2023/11/30 11:21:38;;;;;;;22.80;8.93;;;;;;;5.71;63.86;100109.75;4953640;28;114795;-73